createdAt,value
2022-12-18T00:00:07.937Z,-4.20
2022-12-18T00:02:42.241Z,-4.20
2022-12-18T00:05:10.820Z,-4.30
2022-12-18T00:07:39.601Z,-4.30
2022-12-18T00:10:09.001Z,-4.30
2022-12-18T00:12:37.247Z,-4.30
2022-12-18T00:15:07.978Z,-4.20
2022-12-18T00:17:36.165Z,-4.20
2022-12-18T00:20:04.770Z,-4.10
2022-12-18T00:22:33.189Z,-4.10
2022-12-18T00:25:01.468Z,-4.10
2022-12-18T00:27:29.723Z,-4.00
2022-12-18T00:29:57.962Z,-4.00
2022-12-18T00:32:27.855Z,-4.00
2022-12-18T00:34:56.076Z,-3.90
2022-12-18T00:37:24.276Z,-3.90
2022-12-18T00:39:52.955Z,-3.90
2022-12-18T00:42:39.265Z,-3.90
2022-12-18T00:45:12.661Z,-3.90
2022-12-18T00:47:43.011Z,-3.90
2022-12-18T00:50:11.985Z,-3.90
2022-12-18T00:52:40.184Z,-3.90
2022-12-18T00:55:09.013Z,-4.00
2022-12-18T00:57:37.519Z,-4.10
2022-12-18T01:00:06.993Z,-4.10
2022-12-18T01:02:37.106Z,-4.10
2022-12-18T01:05:08.010Z,-4.20
2022-12-18T01:07:36.266Z,-4.10
2022-12-18T01:10:06.093Z,-4.20
2022-12-18T01:12:35.064Z,-4.20
2022-12-18T01:15:03.277Z,-4.20
2022-12-18T01:17:31.779Z,-4.20
2022-12-18T01:20:02.402Z,-4.30
2022-12-18T01:22:34.535Z,-4.40
2022-12-18T01:25:03.268Z,-4.40
2022-12-18T01:27:31.749Z,-4.40
2022-12-18T01:30:00.041Z,-4.50
2022-12-18T01:32:28.469Z,-4.50
2022-12-18T01:34:57.620Z,-4.50
2022-12-18T01:37:25.868Z,-4.50
2022-12-18T01:39:56.559Z,-4.50
2022-12-18T01:42:26.571Z,-4.50
2022-12-18T01:45:01.608Z,-4.50
2022-12-18T01:47:35.214Z,-4.50
2022-12-18T01:50:08.171Z,-4.50
2022-12-18T01:52:39.510Z,-4.50
2022-12-18T01:55:11.351Z,-4.40
2022-12-18T01:57:40.249Z,-4.40
2022-12-18T02:00:18.127Z,-4.40
2022-12-18T02:02:47.903Z,-4.40
2022-12-18T02:05:19.735Z,-4.40
2022-12-18T02:08:01.038Z,-4.40
2022-12-18T02:10:38.238Z,-4.40
2022-12-18T02:13:14.982Z,-4.40
2022-12-18T02:15:49.133Z,-4.40
2022-12-18T02:18:23.274Z,-4.40
2022-12-18T02:20:57.598Z,-4.40
2022-12-18T02:23:40.854Z,-4.40
2022-12-18T02:26:19.862Z,-4.30
2022-12-18T02:28:55.202Z,-4.30
2022-12-18T02:31:28.079Z,-4.30
2022-12-18T02:34:04.309Z,-4.30
2022-12-18T02:36:40.360Z,-4.30
2022-12-18T02:39:11.496Z,-4.30
2022-12-18T02:41:47.144Z,-4.40
2022-12-18T02:44:16.459Z,-4.40
2022-12-18T02:46:47.618Z,-4.40
2022-12-18T02:49:29.430Z,-4.30
2022-12-18T02:52:07.617Z,-4.30
2022-12-18T02:54:53.089Z,-4.30
2022-12-18T02:57:33.222Z,-4.40
2022-12-18T03:00:06.981Z,-4.40
2022-12-18T03:02:41.617Z,-4.50
2022-12-18T03:05:17.201Z,-4.50
2022-12-18T03:07:53.066Z,-4.50
2022-12-18T03:10:27.278Z,-4.60
2022-12-18T03:13:02.662Z,-4.50
2022-12-18T03:15:36.588Z,-4.50
2022-12-18T03:18:15.221Z,-4.50
2022-12-18T03:20:47.119Z,-4.40
2022-12-18T03:23:28.578Z,-4.40
2022-12-18T03:26:07.161Z,-4.40
2022-12-18T03:28:42.677Z,-4.30
2022-12-18T03:31:14.370Z,-4.30
2022-12-18T03:33:48.686Z,-4.30
2022-12-18T03:36:17.709Z,-4.20
2022-12-18T03:38:46.139Z,-4.20
2022-12-18T03:41:20.653Z,-4.20
2022-12-18T03:44:15.989Z,-4.20
2022-12-18T03:46:51.152Z,-4.20
2022-12-18T03:49:28.148Z,-4.20
2022-12-18T03:52:05.170Z,-4.20
2022-12-18T03:54:36.730Z,-4.20
2022-12-18T03:57:17.321Z,-4.10
2022-12-18T03:59:49.462Z,-4.10
2022-12-18T04:02:21.474Z,-4.10
2022-12-18T04:04:52.716Z,-4.10
2022-12-18T04:07:22.201Z,-4.10
2022-12-18T04:09:53.003Z,-4.10
2022-12-18T04:12:21.344Z,-4.10
2022-12-18T04:14:51.730Z,-4.20
2022-12-18T04:17:20.032Z,-4.20
2022-12-18T04:19:48.892Z,-4.20
2022-12-18T04:22:18.047Z,-4.20
2022-12-18T04:24:49.809Z,-4.20
2022-12-18T04:27:26.729Z,-4.20
2022-12-18T04:29:56.444Z,-4.20
2022-12-18T04:32:24.903Z,-4.20
2022-12-18T04:34:53.617Z,-4.20
2022-12-18T04:37:22.447Z,-4.20
2022-12-18T04:39:52.252Z,-4.20
2022-12-18T04:42:27.939Z,-4.20
2022-12-18T04:44:57.601Z,-4.10
2022-12-18T04:47:25.841Z,-4.20
2022-12-18T04:49:54.156Z,-4.20
2022-12-18T04:52:25.421Z,-4.20
2022-12-18T04:54:53.973Z,-4.20
2022-12-18T04:57:22.252Z,-4.20
2022-12-18T04:59:50.568Z,-4.20
2022-12-18T05:02:20.332Z,-4.30
2022-12-18T05:04:48.799Z,-4.30
2022-12-18T05:07:17.355Z,-4.30
2022-12-18T05:09:45.721Z,-4.40
2022-12-18T05:12:13.969Z,-4.40
2022-12-18T05:14:42.244Z,-4.40
2022-12-18T05:17:10.793Z,-4.40
2022-12-18T05:19:40.484Z,-4.50
2022-12-18T05:22:08.856Z,-4.50
2022-12-18T05:24:37.238Z,-4.50
2022-12-18T05:27:05.653Z,-4.50
2022-12-18T05:29:34.062Z,-4.50
2022-12-18T05:32:02.393Z,-4.50
2022-12-18T05:34:30.834Z,-4.50
2022-12-18T05:37:00.436Z,-4.50
2022-12-18T05:39:28.835Z,-4.50
2022-12-18T05:41:57.077Z,-4.50
2022-12-18T05:44:25.602Z,-4.50
2022-12-18T05:46:53.994Z,-4.50
2022-12-18T05:49:22.321Z,-4.50
2022-12-18T05:51:50.558Z,-4.50
2022-12-18T05:54:20.257Z,-4.50
2022-12-18T05:56:48.931Z,-4.40
2022-12-18T05:59:17.612Z,-4.50
2022-12-18T06:01:45.984Z,-4.50
2022-12-18T06:04:14.666Z,-4.50
2022-12-18T06:06:43.192Z,-4.50
2022-12-18T06:09:12.626Z,-4.60
2022-12-18T06:11:42.200Z,-4.60
2022-12-18T06:14:11.857Z,-4.60
2022-12-18T06:16:40.591Z,-4.60
2022-12-18T06:19:08.994Z,-4.50
2022-12-18T06:21:37.301Z,-4.50
2022-12-18T06:24:05.953Z,-4.50
2022-12-18T06:26:34.310Z,-4.60
2022-12-18T06:29:04.260Z,-4.60
2022-12-18T06:31:32.609Z,-4.60
2022-12-18T06:34:01.027Z,-4.70
2022-12-18T06:36:29.891Z,-4.70
2022-12-18T06:38:59.557Z,-4.70
2022-12-18T06:41:27.945Z,-4.80
2022-12-18T06:43:59.702Z,-4.80
2022-12-18T06:46:29.710Z,-4.80
2022-12-18T06:48:57.979Z,-4.80
2022-12-18T06:51:27.034Z,-4.80
2022-12-18T06:53:55.358Z,-4.80
2022-12-18T06:56:23.985Z,-4.90
2022-12-18T06:58:52.268Z,-4.90
2022-12-18T07:01:20.868Z,-4.90
2022-12-18T07:03:55.223Z,-4.90
2022-12-18T07:06:26.389Z,-4.90
2022-12-18T07:08:56.323Z,-4.90
2022-12-18T07:11:25.409Z,-5.00
2022-12-18T07:13:55.537Z,-5.00
2022-12-18T07:16:26.408Z,-5.00
2022-12-18T07:18:57.637Z,-5.00
2022-12-18T07:21:26.832Z,-5.00
2022-12-18T07:23:55.406Z,-5.00
2022-12-18T07:26:24.742Z,-5.00
2022-12-18T07:28:56.898Z,-5.00
2022-12-18T07:31:25.563Z,-4.90
2022-12-18T07:33:55.772Z,-4.90
2022-12-18T07:36:24.599Z,-4.90
2022-12-18T07:38:53.836Z,-4.90
2022-12-18T07:41:22.731Z,-4.80
2022-12-18T07:43:51.348Z,-4.80
2022-12-18T07:46:19.837Z,-4.70
2022-12-18T07:48:49.443Z,-4.70
2022-12-18T07:51:20.457Z,-4.70
2022-12-18T07:53:52.254Z,-4.70
2022-12-18T07:56:30.546Z,-4.70
2022-12-18T07:59:00.644Z,-4.70
2022-12-18T08:01:32.400Z,-4.80
2022-12-18T08:04:00.850Z,-4.70
2022-12-18T08:06:30.580Z,-4.60
2022-12-18T08:08:59.060Z,-4.60
2022-12-18T08:11:28.897Z,-4.60
2022-12-18T08:13:58.108Z,-4.60
2022-12-18T08:16:27.142Z,-4.60
2022-12-18T08:18:56.107Z,-4.60
2022-12-18T08:21:26.316Z,-4.50
2022-12-18T08:23:58.298Z,-4.50
2022-12-18T08:26:29.050Z,-4.30
2022-12-18T08:28:58.908Z,-4.20
2022-12-18T08:31:28.407Z,-4.20
2022-12-18T08:33:56.818Z,-4.10
2022-12-18T08:36:27.017Z,-4.10
2022-12-18T08:38:56.896Z,-4.10
2022-12-18T08:41:25.190Z,-4.10
2022-12-18T08:44:11.212Z,-4.10
2022-12-18T08:46:41.238Z,-4.00
2022-12-18T08:49:10.984Z,-4.00
2022-12-18T08:51:40.369Z,-4.00
2022-12-18T08:54:12.841Z,-4.00
2022-12-18T08:56:41.265Z,-3.90
2022-12-18T08:59:17.368Z,-3.80
2022-12-18T09:01:48.290Z,-3.80
2022-12-18T09:04:18.435Z,-3.80
2022-12-18T09:06:47.441Z,-3.80
2022-12-18T09:09:17.080Z,-3.80
2022-12-18T09:11:45.624Z,-3.90
2022-12-18T09:14:13.923Z,-3.90
2022-12-18T09:16:42.409Z,-3.90
2022-12-18T09:19:12.396Z,-3.90
2022-12-18T09:21:46.128Z,-4.00
2022-12-18T09:24:18.164Z,-4.00
2022-12-18T09:26:47.371Z,-4.00
2022-12-18T09:29:16.785Z,-4.00
2022-12-18T09:31:47.292Z,-4.00
2022-12-18T09:34:15.567Z,-3.90
2022-12-18T09:36:43.981Z,-3.80
2022-12-18T09:39:12.259Z,-3.70
2022-12-18T09:41:48.262Z,-3.60
2022-12-18T09:44:23.572Z,-3.50
2022-12-18T09:47:00.719Z,-3.40
2022-12-18T09:49:32.519Z,-3.30
2022-12-18T09:52:06.575Z,-3.30
2022-12-18T09:54:39.905Z,-3.30
2022-12-18T09:57:16.303Z,-3.30
2022-12-18T09:59:48.014Z,-3.30
2022-12-18T10:02:18.490Z,-3.20
2022-12-18T10:04:55.293Z,-3.10
2022-12-18T10:07:31.704Z,-3.00
2022-12-18T10:10:08.324Z,-3.00
2022-12-18T10:12:44.793Z,-2.90
2022-12-18T10:15:21.804Z,-2.80
2022-12-18T10:17:58.828Z,-2.70
2022-12-18T10:20:34.732Z,-2.70
2022-12-18T10:23:11.467Z,-2.60
2022-12-18T10:25:48.000Z,-2.60
2022-12-18T10:28:21.114Z,-2.60
2022-12-18T10:30:49.435Z,-2.50
2022-12-18T10:33:20.239Z,-2.40
2022-12-18T10:35:51.019Z,-2.40
2022-12-18T10:38:25.458Z,-2.30
2022-12-18T10:40:55.934Z,-2.30
2022-12-18T10:43:29.329Z,-2.30
2022-12-18T10:46:16.780Z,-2.30
2022-12-18T10:48:56.714Z,-2.30
2022-12-18T10:51:30.620Z,-2.20
2022-12-18T10:54:02.974Z,-2.20
2022-12-18T10:56:35.464Z,-2.10
2022-12-18T10:59:07.191Z,-2.00
2022-12-18T11:01:52.282Z,-2.00
2022-12-18T11:04:23.663Z,-2.00
2022-12-18T11:07:00.992Z,-2.00
2022-12-18T11:09:30.956Z,-2.00
2022-12-18T11:12:01.346Z,-2.00
2022-12-18T11:14:34.663Z,-1.90
2022-12-18T11:17:24.762Z,-1.90
2022-12-18T11:19:56.462Z,-1.80
2022-12-18T11:22:28.748Z,-1.70
2022-12-18T11:27:54.758Z,-1.50
2022-12-18T11:30:27.337Z,-1.40
2022-12-18T11:32:59.114Z,-1.30
2022-12-18T11:35:39.131Z,-1.30
2022-12-18T11:38:14.873Z,-1.20
2022-12-18T11:40:47.565Z,-1.20
2022-12-18T11:43:21.961Z,-1.10
2022-12-18T11:45:56.582Z,-1.10
2022-12-18T11:48:29.053Z,-1.10
2022-12-18T11:50:59.047Z,-1.00
2022-12-18T11:53:29.194Z,-1.00
2022-12-18T11:56:08.628Z,-1.10
2022-12-18T11:58:46.993Z,-1.10
2022-12-18T12:01:29.488Z,-1.10
2022-12-18T12:04:28.182Z,-1.10
2022-12-18T12:07:05.304Z,-1.10
2022-12-18T12:09:42.331Z,-1.10
2022-12-18T12:12:28.525Z,-1.00
2022-12-18T12:15:05.222Z,-1.00
2022-12-18T12:17:40.313Z,-1.00
2022-12-18T12:20:16.627Z,-1.00
2022-12-18T12:22:55.400Z,-1.00
2022-12-18T12:25:34.083Z,-1.00
2022-12-18T12:28:15.425Z,-1.00
2022-12-18T12:30:54.665Z,-1.00
2022-12-18T12:33:38.392Z,-1.00
2022-12-18T12:36:16.376Z,-1.00
2022-12-18T12:38:52.259Z,-1.00
2022-12-18T12:41:42.752Z,-1.00
2022-12-18T12:44:17.360Z,-1.00
2022-12-18T12:46:46.827Z,-1.00
2022-12-18T12:49:19.630Z,-1.00
2022-12-18T12:51:54.632Z,-1.00
2022-12-18T12:54:26.814Z,-1.00
2022-12-18T12:57:02.511Z,-1.00
2022-12-18T12:59:37.604Z,-1.00
2022-12-18T13:02:16.930Z,-1.00
2022-12-18T13:04:51.947Z,-1.00
2022-12-18T13:07:28.301Z,-1.00
2022-12-18T13:10:27.186Z,-1.00
2022-12-18T13:12:57.078Z,-1.00
2022-12-18T13:15:31.054Z,-1.00
2022-12-18T13:18:19.028Z,-1.10
2022-12-18T13:20:56.356Z,-1.20
2022-12-18T13:23:32.767Z,-1.30
2022-12-18T13:26:01.977Z,-1.40
2022-12-18T13:28:54.755Z,-1.50
2022-12-18T13:32:09.194Z,-1.60
2022-12-18T13:34:38.519Z,-1.60
2022-12-18T13:37:42.134Z,-1.60
2022-12-18T13:40:53.641Z,-1.60
2022-12-18T13:43:30.615Z,-1.50
2022-12-18T13:46:24.133Z,-1.50
2022-12-18T13:49:00.253Z,-1.60
2022-12-18T13:51:29.792Z,-1.80
2022-12-18T13:54:02.651Z,-1.90
2022-12-18T13:56:34.477Z,-2.00
2022-12-18T13:59:15.941Z,-2.10
2022-12-18T14:01:51.090Z,-2.20
2022-12-18T14:04:28.800Z,-2.20
2022-12-18T14:07:05.233Z,-2.20
2022-12-18T14:09:40.458Z,-2.20
2022-12-18T14:12:34.731Z,-2.20
2022-12-18T14:15:03.770Z,-2.20
2022-12-18T14:17:33.953Z,-2.20
2022-12-18T14:20:03.213Z,-2.20
2022-12-18T14:22:32.949Z,-2.20
2022-12-18T14:25:17.848Z,-2.20
2022-12-18T14:27:48.601Z,-2.30
2022-12-18T14:30:28.843Z,-2.30
2022-12-18T14:33:08.341Z,-2.30
2022-12-18T14:35:38.730Z,-2.30
2022-12-18T14:38:23.423Z,-2.40
2022-12-18T14:41:00.176Z,-2.40
2022-12-18T14:43:29.496Z,-2.50
2022-12-18T14:45:58.539Z,-2.60
2022-12-18T14:48:37.380Z,-2.60
2022-12-18T14:51:08.473Z,-2.60
2022-12-18T14:53:40.250Z,-2.70
2022-12-18T14:56:21.814Z,-2.80
2022-12-18T14:58:52.037Z,-2.70
2022-12-18T15:01:23.979Z,-2.80
2022-12-18T15:03:53.568Z,-2.90
2022-12-18T15:06:34.205Z,-2.90
2022-12-18T15:09:05.114Z,-3.00
2022-12-18T15:11:47.630Z,-3.00
2022-12-18T15:14:33.380Z,-3.10
2022-12-18T15:17:03.809Z,-3.10
2022-12-18T15:19:39.390Z,-3.10
2022-12-18T15:22:20.588Z,-3.10
2022-12-18T15:24:50.865Z,-3.20
2022-12-18T15:27:31.147Z,-3.20
2022-12-18T15:30:20.231Z,-3.20
2022-12-18T15:32:49.936Z,-3.20
2022-12-18T15:35:21.605Z,-3.30
2022-12-18T15:37:50.829Z,-3.30
2022-12-18T15:40:20.969Z,-3.30
2022-12-18T15:43:11.086Z,-3.40
2022-12-18T15:45:39.273Z,-3.40
2022-12-18T15:48:20.426Z,-3.40
2022-12-18T15:50:49.122Z,-3.50
2022-12-18T15:53:17.561Z,-3.50
2022-12-18T15:56:03.260Z,-3.60
2022-12-18T15:58:33.851Z,-3.60
2022-12-18T16:01:03.320Z,-3.60
2022-12-18T16:03:31.771Z,-3.60
2022-12-18T16:06:04.044Z,-3.60
2022-12-18T16:08:33.524Z,-3.60
2022-12-18T16:11:02.320Z,-3.60
2022-12-18T16:13:32.434Z,-3.70
2022-12-18T16:16:01.317Z,-3.60
2022-12-18T16:18:29.755Z,-3.70
2022-12-18T16:20:58.049Z,-3.70
2022-12-18T16:23:26.464Z,-3.70
2022-12-18T16:25:54.967Z,-3.70
2022-12-18T16:28:23.812Z,-3.70
2022-12-18T16:30:53.678Z,-3.70
2022-12-18T16:33:22.142Z,-3.70
2022-12-18T16:35:54.647Z,-3.60
2022-12-18T16:38:23.112Z,-3.70
2022-12-18T16:41:09.159Z,-3.70
2022-12-18T16:43:37.564Z,-3.60
2022-12-18T16:46:07.404Z,-3.60
2022-12-18T16:48:36.064Z,-3.60
2022-12-18T16:51:06.371Z,-3.60
2022-12-18T16:53:35.142Z,-3.60
2022-12-18T16:56:04.662Z,-3.60
2022-12-18T16:58:35.152Z,-3.60
2022-12-18T17:01:11.103Z,-3.60
2022-12-18T17:03:40.065Z,-3.60
2022-12-18T17:06:09.160Z,-3.60
2022-12-18T17:08:37.405Z,-3.60
2022-12-18T17:11:07.153Z,-3.60
2022-12-18T17:13:35.803Z,-3.60
2022-12-18T17:16:06.391Z,-3.60
2022-12-18T17:18:36.507Z,-3.50
2022-12-18T17:21:06.398Z,-3.50
2022-12-18T17:23:34.701Z,-3.50
2022-12-18T17:26:03.206Z,-3.50
2022-12-18T17:28:32.398Z,-3.50
2022-12-18T17:31:01.458Z,-3.60
2022-12-18T17:33:29.960Z,-3.60
2022-12-18T17:36:01.198Z,-3.60
2022-12-18T17:38:29.660Z,-3.60
2022-12-18T17:41:02.797Z,-3.70
2022-12-18T17:43:31.645Z,-3.70
2022-12-18T17:46:03.561Z,-3.70
2022-12-18T17:48:32.667Z,-3.70
2022-12-18T17:51:04.643Z,-3.70
2022-12-18T17:53:33.118Z,-3.80
2022-12-18T17:56:05.670Z,-3.80
2022-12-18T17:58:35.662Z,-3.80
2022-12-18T18:01:04.909Z,-3.90
2022-12-18T18:03:34.046Z,-3.90
2022-12-18T18:06:03.906Z,-3.90
2022-12-18T18:08:32.673Z,-4.00
2022-12-18T18:11:19.668Z,-4.00
2022-12-18T18:14:03.190Z,-3.90
2022-12-18T18:16:34.315Z,-3.90
2022-12-18T18:19:05.564Z,-3.90
2022-12-18T18:21:36.367Z,-3.90
2022-12-18T18:24:06.083Z,-3.90
2022-12-18T18:26:36.100Z,-3.90
2022-12-18T18:29:06.501Z,-3.90
2022-12-18T18:31:36.437Z,-3.80
2022-12-18T18:34:09.899Z,-3.80
2022-12-18T18:36:39.644Z,-3.80
2022-12-18T18:39:08.993Z,-3.70
2022-12-18T18:41:39.058Z,-3.70
2022-12-18T18:44:08.163Z,-3.70
2022-12-18T18:46:36.952Z,-3.60
2022-12-18T18:49:05.895Z,-3.60
2022-12-18T18:51:35.223Z,-3.60
2022-12-18T18:54:05.620Z,-3.70
2022-12-18T18:56:56.205Z,-3.60
2022-12-18T18:59:29.134Z,-3.70
2022-12-18T19:02:04.637Z,-3.60
2022-12-18T19:04:33.678Z,-3.50
2022-12-18T19:07:02.058Z,-3.40
2022-12-18T19:09:32.342Z,-3.30
2022-12-18T19:12:18.005Z,-3.20
2022-12-18T19:14:47.060Z,-3.10
2022-12-18T19:17:16.325Z,-3.10
2022-12-18T19:19:45.347Z,-3.10
2022-12-18T19:22:14.157Z,-3.10
2022-12-18T19:24:44.381Z,-3.20
2022-12-18T19:27:12.717Z,-3.20
2022-12-18T19:29:41.198Z,-3.20
2022-12-18T19:32:10.305Z,-3.20
2022-12-18T19:34:40.669Z,-3.20
2022-12-18T19:37:09.469Z,-3.20
2022-12-18T19:39:37.892Z,-3.20
2022-12-18T19:42:07.731Z,-3.20
2022-12-18T19:44:36.183Z,-3.20
2022-12-18T19:47:04.502Z,-3.30
2022-12-18T19:49:32.904Z,-3.30
2022-12-18T19:52:02.112Z,-3.20
2022-12-18T19:54:31.021Z,-3.20
2022-12-18T19:56:59.824Z,-3.20
2022-12-18T19:59:29.588Z,-3.30
2022-12-18T20:01:58.058Z,-3.30
2022-12-18T20:04:26.482Z,-3.30
2022-12-18T20:06:56.030Z,-3.30
2022-12-18T20:09:24.819Z,-3.30
2022-12-18T20:11:53.550Z,-3.20
2022-12-18T20:14:23.589Z,-3.30
2022-12-18T20:16:54.238Z,-3.20
2022-12-18T20:19:23.328Z,-3.20
2022-12-18T20:21:51.914Z,-3.20
2022-12-18T20:24:20.401Z,-3.20
2022-12-18T20:26:48.992Z,-3.20
2022-12-18T20:29:17.498Z,-3.20
2022-12-18T20:31:46.533Z,-3.30
2022-12-18T20:34:16.353Z,-3.40
2022-12-18T20:36:45.704Z,-3.50
2022-12-18T20:39:15.232Z,-3.50
2022-12-18T20:41:44.227Z,-3.50
2022-12-18T20:44:22.662Z,-3.50
2022-12-18T20:46:58.006Z,-3.50
2022-12-18T20:49:28.534Z,-3.40
2022-12-18T20:51:58.616Z,-3.40
2022-12-18T20:54:28.606Z,-3.40
2022-12-18T20:56:57.290Z,-3.30
2022-12-18T20:59:26.286Z,-3.30
2022-12-18T21:01:54.790Z,-3.20
2022-12-18T21:04:24.491Z,-3.20
2022-12-18T21:06:57.803Z,-3.10
2022-12-18T21:09:37.538Z,-3.10
2022-12-18T21:12:29.275Z,-3.10
2022-12-18T21:14:59.558Z,-3.10
2022-12-18T21:17:28.159Z,-3.10
2022-12-18T21:19:57.203Z,-3.10
2022-12-18T21:22:27.657Z,-3.00
2022-12-18T21:24:56.019Z,-3.00
2022-12-18T21:27:24.278Z,-3.00
2022-12-18T21:29:53.348Z,-2.90
2022-12-18T21:32:21.650Z,-2.90
2022-12-18T21:34:53.049Z,-2.90
2022-12-18T21:37:21.307Z,-2.90
2022-12-18T21:39:50.945Z,-2.80
2022-12-18T21:42:36.736Z,-2.80
2022-12-18T21:45:05.653Z,-2.80
2022-12-18T21:47:34.237Z,-2.80
2022-12-18T21:50:02.489Z,-2.80
2022-12-18T21:52:32.083Z,-2.80
2022-12-18T21:55:08.423Z,-2.70
2022-12-18T21:57:39.204Z,-2.70
2022-12-18T22:00:19.339Z,-2.70
2022-12-18T22:03:00.503Z,-2.70
2022-12-18T22:05:37.561Z,-2.70
2022-12-18T22:08:07.062Z,-2.70
2022-12-18T22:10:37.206Z,-2.70
2022-12-18T22:13:06.128Z,-2.70
2022-12-18T22:15:34.810Z,-2.70
2022-12-18T22:18:03.236Z,-2.70
2022-12-18T22:20:31.514Z,-2.80
2022-12-18T22:23:04.391Z,-2.80
2022-12-18T22:25:38.952Z,-2.70
2022-12-18T22:28:26.005Z,-2.80
2022-12-18T22:30:58.977Z,-2.80
2022-12-18T22:33:28.772Z,-2.70
2022-12-18T22:35:57.223Z,-2.70
2022-12-18T22:38:25.482Z,-2.70
2022-12-18T22:40:56.093Z,-2.60
2022-12-18T22:43:24.353Z,-2.60
2022-12-18T22:45:52.614Z,-2.60
2022-12-18T22:48:21.022Z,-2.50
2022-12-18T22:50:49.587Z,-2.50
2022-12-18T22:53:19.484Z,-2.50
2022-12-18T22:55:48.081Z,-2.40
2022-12-18T22:58:17.765Z,-2.40
2022-12-18T23:00:46.040Z,-2.40
2022-12-18T23:03:14.545Z,-2.30
2022-12-18T23:05:43.189Z,-2.30
2022-12-18T23:08:11.506Z,-2.30
2022-12-18T23:10:40.412Z,-2.30
2022-12-18T23:13:09.079Z,-2.20
2022-12-18T23:15:42.598Z,-2.20
2022-12-18T23:18:11.204Z,-2.20
2022-12-18T23:20:39.588Z,-2.20
2022-12-18T23:23:08.677Z,-2.20
2022-12-18T23:25:36.929Z,-2.20
2022-12-18T23:28:05.603Z,-2.20
2022-12-18T23:30:34.162Z,-2.20
2022-12-18T23:33:04.038Z,-2.20
2022-12-18T23:35:32.939Z,-2.10
2022-12-18T23:38:01.274Z,-2.10
2022-12-18T23:40:30.612Z,-2.10
2022-12-18T23:43:00.443Z,-2.10
2022-12-18T23:45:29.025Z,-2.00
2022-12-18T23:47:57.457Z,-2.00
2022-12-18T23:50:30.006Z,-1.90
2022-12-18T23:53:04.601Z,-1.90
2022-12-18T23:55:34.241Z,-1.90
2022-12-18T23:58:02.830Z,-1.90
